createdAt,value
2017-02-21T00:00:06.792Z,0
2017-02-21T00:01:06.703Z,0
2017-02-21T00:02:07.124Z,0
2017-02-21T00:03:06.242Z,0
2017-02-21T00:04:06.325Z,0
2017-02-21T00:05:06.231Z,0
2017-02-21T00:06:06.580Z,0
2017-02-21T00:07:06.562Z,0
2017-02-21T00:08:06.597Z,0
2017-02-21T00:09:06.969Z,0
2017-02-21T00:10:07.000Z,0
2017-02-21T00:11:06.888Z,0
2017-02-21T00:12:07.007Z,0
2017-02-21T00:13:06.486Z,0
2017-02-21T00:14:06.828Z,0
2017-02-21T00:15:06.415Z,0
2017-02-21T00:16:06.407Z,0
2017-02-21T00:17:06.382Z,0
2017-02-21T00:18:06.855Z,0
2017-02-21T00:19:06.373Z,0
2017-02-21T00:20:06.315Z,0
2017-02-21T00:21:06.702Z,0
2017-02-21T00:22:06.351Z,0
2017-02-21T00:23:06.271Z,0
2017-02-21T00:24:06.622Z,0
2017-02-21T00:25:05.845Z,0
2017-02-21T00:26:06.205Z,0
2017-02-21T00:27:06.576Z,0
2017-02-21T00:28:06.580Z,0
2017-02-21T00:29:06.509Z,0
2017-02-21T00:30:05.737Z,0
2017-02-21T00:31:06.105Z,0
2017-02-21T00:32:06.476Z,0
2017-02-21T00:33:06.518Z,0
2017-02-21T00:34:06.565Z,0
2017-02-21T00:35:06.428Z,0
2017-02-21T00:36:06.014Z,0
2017-02-21T00:37:06.044Z,0
2017-02-21T00:38:05.968Z,0
2017-02-21T00:39:05.575Z,0
2017-02-21T00:40:06.320Z,0
2017-02-21T00:41:05.511Z,0
2017-02-21T00:42:06.322Z,0
2017-02-21T00:43:05.879Z,0
2017-02-21T00:44:06.232Z,0
2017-02-21T00:45:06.229Z,0
2017-02-21T00:46:06.210Z,0
2017-02-21T00:47:05.809Z,0
2017-02-21T00:48:05.778Z,0
2017-02-21T00:49:06.149Z,0
2017-02-21T00:50:05.338Z,0
2017-02-21T00:51:05.326Z,0
2017-02-21T00:52:06.146Z,0
2017-02-21T00:53:05.686Z,0
2017-02-21T00:54:05.654Z,0
2017-02-21T00:55:05.688Z,0
2017-02-21T00:56:06.053Z,0
2017-02-21T00:57:05.973Z,0
2017-02-21T00:58:05.568Z,0
2017-02-21T00:59:05.941Z,0
2017-02-21T01:00:05.527Z,0
2017-02-21T01:01:05.913Z,0
2017-02-21T01:02:05.969Z,0
2017-02-21T01:03:05.106Z,0
2017-02-21T01:04:05.855Z,0
2017-02-21T01:05:05.810Z,0
2017-02-21T01:06:05.819Z,0
2017-02-21T01:07:05.778Z,0
2017-02-21T01:08:05.768Z,0
2017-02-21T01:09:05.354Z,0
2017-02-21T01:10:05.731Z,0
2017-02-21T01:11:05.405Z,0
2017-02-21T01:12:05.717Z,0
2017-02-21T01:13:05.275Z,0
2017-02-21T01:14:05.236Z,0
2017-02-21T01:15:04.949Z,0
2017-02-21T01:16:05.244Z,0
2017-02-21T01:17:05.583Z,0
2017-02-21T01:18:05.573Z,0
2017-02-21T01:19:05.559Z,0
2017-02-21T01:20:05.111Z,0
2017-02-21T01:21:05.513Z,0
2017-02-21T01:22:04.716Z,0
2017-02-21T01:23:05.100Z,0
2017-02-21T01:24:05.469Z,0
2017-02-21T01:25:04.674Z,0
2017-02-21T01:26:05.038Z,0
2017-02-21T01:27:04.624Z,0
2017-02-21T01:28:05.366Z,0
2017-02-21T01:29:04.957Z,0
2017-02-21T01:30:05.336Z,0
2017-02-21T01:31:05.315Z,0
2017-02-21T01:32:04.904Z,0
2017-02-21T01:33:04.561Z,0
2017-02-21T01:34:04.901Z,0
2017-02-21T01:35:04.859Z,0
2017-02-21T01:36:04.837Z,0
2017-02-21T01:37:05.234Z,0
2017-02-21T01:38:05.162Z,0
2017-02-21T01:39:04.771Z,0
2017-02-21T01:40:04.770Z,0
2017-02-21T01:41:04.738Z,0
2017-02-21T01:42:04.339Z,0
2017-02-21T01:43:05.109Z,0
2017-02-21T01:44:04.338Z,0
2017-02-21T01:45:04.275Z,0
2017-02-21T01:46:04.255Z,0
2017-02-21T01:47:05.087Z,0
2017-02-21T01:48:04.595Z,0
2017-02-21T01:49:04.688Z,0
2017-02-21T01:50:04.555Z,0
2017-02-21T01:51:05.025Z,0
2017-02-21T01:52:04.539Z,0
2017-02-21T01:53:04.515Z,0
2017-02-21T01:54:04.871Z,0
2017-02-21T01:55:04.567Z,0
2017-02-21T01:56:03.663Z,0
2017-02-21T01:57:04.425Z,0
2017-02-21T01:58:03.995Z,0
2017-02-21T01:59:04.470Z,0
2017-02-21T02:00:03.987Z,0
2017-02-21T02:01:04.810Z,0
2017-02-21T02:02:04.712Z,0
2017-02-21T02:03:04.338Z,0
2017-02-21T02:04:04.673Z,0
2017-02-21T02:05:04.328Z,0
2017-02-21T02:06:03.856Z,0
2017-02-21T02:07:03.857Z,0
2017-02-21T02:08:04.679Z,0
2017-02-21T02:09:03.796Z,0
2017-02-21T02:10:04.174Z,0
2017-02-21T02:11:03.362Z,0
2017-02-21T02:12:03.726Z,0
2017-02-21T02:13:03.714Z,0
2017-02-21T02:14:04.512Z,0
2017-02-21T02:15:03.672Z,0
2017-02-21T02:16:04.501Z,0
2017-02-21T02:17:04.021Z,0
2017-02-21T02:18:04.419Z,0
2017-02-21T02:19:03.992Z,0
2017-02-21T02:20:04.352Z,0
2017-02-21T02:21:04.008Z,0
2017-02-21T02:22:03.958Z,0
2017-02-21T02:23:04.388Z,0
2017-02-21T02:24:04.337Z,0
2017-02-21T02:25:04.267Z,0
2017-02-21T02:26:03.456Z,0
2017-02-21T02:27:04.458Z,0
2017-02-21T02:28:04.195Z,0
2017-02-21T02:29:03.405Z,0
2017-02-21T02:30:03.783Z,0
2017-02-21T02:31:04.162Z,0
2017-02-21T02:32:03.358Z,0
2017-02-21T02:33:04.103Z,0
2017-02-21T02:34:03.691Z,0
2017-02-21T02:35:03.723Z,0
2017-02-21T02:36:03.654Z,0
2017-02-21T02:37:03.630Z,0
2017-02-21T02:38:03.601Z,0
2017-02-21T02:39:03.229Z,0
2017-02-21T02:40:03.563Z,0
2017-02-21T02:41:03.547Z,0
2017-02-21T02:42:03.515Z,0
2017-02-21T02:43:03.533Z,0
2017-02-21T02:44:03.501Z,0
2017-02-21T02:45:03.846Z,0
2017-02-21T02:46:03.460Z,0
2017-02-21T02:47:03.424Z,0
2017-02-21T02:48:03.404Z,0
2017-02-21T02:49:03.013Z,0
2017-02-21T02:50:02.972Z,0
2017-02-21T02:51:03.359Z,0
2017-02-21T02:52:03.721Z,0
2017-02-21T02:53:03.694Z,0
2017-02-21T02:54:02.950Z,0
2017-02-21T02:55:03.675Z,0
2017-02-21T02:56:03.260Z,0
2017-02-21T02:57:02.544Z,0
2017-02-21T02:58:02.876Z,0
2017-02-21T02:59:03.577Z,0
2017-02-21T03:00:02.788Z,0
2017-02-21T03:01:03.155Z,0
2017-02-21T03:02:02.755Z,0
2017-02-21T03:03:03.485Z,0
2017-02-21T03:04:03.485Z,0
2017-02-21T03:05:03.467Z,0
2017-02-21T03:06:02.678Z,0
2017-02-21T03:07:03.413Z,0
2017-02-21T03:08:03.403Z,0
2017-02-21T03:09:02.992Z,0
2017-02-21T03:10:02.983Z,0
2017-02-21T03:11:03.331Z,0
2017-02-21T03:12:03.341Z,0
2017-02-21T03:13:02.527Z,0
2017-02-21T03:14:02.499Z,0
2017-02-21T03:15:02.886Z,0
2017-02-21T03:16:03.246Z,0
2017-02-21T03:17:03.227Z,0
2017-02-21T03:18:02.462Z,0
2017-02-21T03:19:02.837Z,0
2017-02-21T03:20:02.407Z,0
2017-02-21T03:21:02.395Z,0
2017-02-21T03:22:02.360Z,0
2017-02-21T03:23:03.115Z,0
2017-02-21T03:24:02.711Z,0
2017-02-21T03:25:02.298Z,0
2017-02-21T03:26:02.640Z,0
2017-02-21T03:27:02.245Z,0
2017-02-21T03:28:02.617Z,0
2017-02-21T03:29:02.980Z,0
2017-02-21T03:30:02.199Z,0
2017-02-21T03:31:02.618Z,0
2017-02-21T03:32:02.155Z,0
2017-02-21T03:33:02.908Z,0
2017-02-21T03:34:02.887Z,0
2017-02-21T03:35:02.105Z,0
2017-02-21T03:36:02.457Z,0
2017-02-21T03:37:02.046Z,0
2017-02-21T03:38:02.024Z,0
2017-02-21T03:39:02.007Z,0
2017-02-21T03:40:02.381Z,0
2017-02-21T03:41:02.374Z,0
2017-02-21T03:42:02.717Z,0
2017-02-21T03:43:01.934Z,0
2017-02-21T03:44:02.761Z,0
2017-02-21T03:45:02.651Z,0
2017-02-21T03:46:02.271Z,0
2017-02-21T03:47:02.241Z,0
2017-02-21T03:48:02.207Z,0
2017-02-21T03:49:01.799Z,0
2017-02-21T03:50:02.603Z,0
2017-02-21T03:51:02.200Z,0
2017-02-21T03:52:02.130Z,0
2017-02-21T03:53:02.128Z,0
2017-02-21T03:54:02.136Z,0
2017-02-21T03:55:02.427Z,0
2017-02-21T03:56:02.067Z,0
2017-02-21T03:57:02.407Z,0
2017-02-21T03:58:02.369Z,0
2017-02-21T03:59:01.988Z,0
2017-02-21T04:00:01.987Z,0
2017-02-21T04:01:01.565Z,0
2017-02-21T04:02:02.323Z,0
2017-02-21T04:03:02.315Z,0
2017-02-21T04:04:01.518Z,0
2017-02-21T04:05:01.899Z,0
2017-02-21T04:06:01.451Z,0
2017-02-21T04:07:01.821Z,0
2017-02-21T04:08:02.198Z,0
2017-02-21T04:09:01.810Z,0
2017-02-21T04:10:02.160Z,0
2017-02-21T04:11:01.742Z,0
2017-02-21T04:12:01.741Z,0
2017-02-21T04:13:01.729Z,0
2017-02-21T04:14:01.697Z,0
2017-02-21T04:15:01.669Z,0
2017-02-21T04:16:02.024Z,0
2017-02-21T04:17:02.035Z,0
2017-02-21T04:18:01.226Z,0
2017-02-21T04:19:01.205Z,0
2017-02-21T04:20:01.556Z,0
2017-02-21T04:21:01.175Z,0
2017-02-21T04:22:01.813Z,0
2017-02-21T04:23:01.122Z,0
2017-02-21T04:24:01.872Z,0
2017-02-21T04:25:01.482Z,0
2017-02-21T04:26:01.832Z,0
2017-02-21T04:27:01.422Z,0
2017-02-21T04:28:01.400Z,0
2017-02-21T04:29:01.765Z,0
2017-02-21T04:30:00.998Z,0
2017-02-21T04:31:01.345Z,0
2017-02-21T04:32:01.319Z,0
2017-02-21T04:33:01.690Z,0
2017-02-21T04:34:00.907Z,0
2017-02-21T04:35:00.879Z,0
2017-02-21T04:36:01.626Z,0
2017-02-21T04:37:01.225Z,0
2017-02-21T04:38:01.208Z,0
2017-02-21T04:39:00.405Z,0
2017-02-21T04:40:01.551Z,0
2017-02-21T04:41:01.147Z,0
2017-02-21T04:42:01.552Z,0
2017-02-21T04:43:00.735Z,0
2017-02-21T04:44:01.083Z,0
2017-02-21T04:45:01.453Z,0
2017-02-21T04:46:00.741Z,0
2017-02-21T04:47:01.413Z,0
2017-02-21T04:48:01.089Z,0
2017-02-21T04:49:00.584Z,0
2017-02-21T04:50:00.670Z,0
2017-02-21T04:51:00.950Z,0
2017-02-21T04:52:00.938Z,0
2017-02-21T04:53:01.287Z,0
2017-02-21T04:54:01.306Z,0
2017-02-21T04:55:00.874Z,0
2017-02-21T04:56:00.835Z,0
2017-02-21T04:57:00.815Z,0
2017-02-21T04:58:00.775Z,0
2017-02-21T04:59:00.380Z,0
2017-02-21T05:00:01.156Z,0
2017-02-21T05:01:00.755Z,0
2017-02-21T05:02:00.427Z,0
2017-02-21T05:03:00.304Z,0
2017-02-21T05:04:01.052Z,0
2017-02-21T05:05:01.061Z,0
2017-02-21T05:06:01.010Z,0
2017-02-21T05:07:00.608Z,0
2017-02-21T05:08:00.621Z,0
2017-02-21T05:09:01.015Z,0
2017-02-21T05:10:00.939Z,0
2017-02-21T05:11:00.167Z,0
2017-02-21T05:12:00.117Z,0
2017-02-21T05:13:00.080Z,0
2017-02-21T05:14:00.076Z,0
2017-02-21T05:15:00.849Z,0
2017-02-21T05:16:00.815Z,0
2017-02-21T05:17:00.784Z,0
2017-02-21T05:18:00.385Z,0
2017-02-21T05:18:59.970Z,0
2017-02-21T05:20:00.032Z,0
2017-02-21T05:21:00.343Z,0
2017-02-21T05:21:59.917Z,0
2017-02-21T05:23:00.662Z,0
2017-02-21T05:23:59.929Z,0
2017-02-21T05:24:59.476Z,0
2017-02-21T05:26:00.260Z,0
2017-02-21T05:26:59.819Z,0
2017-02-21T05:28:00.181Z,0
2017-02-21T05:29:00.568Z,0
2017-02-21T05:30:00.521Z,0
2017-02-21T05:31:00.501Z,0
2017-02-21T05:32:00.527Z,0
2017-02-21T05:33:00.469Z,0
2017-02-21T05:34:00.080Z,0
2017-02-21T05:35:00.028Z,0
2017-02-21T05:36:00.073Z,0
2017-02-21T05:37:00.389Z,0
2017-02-21T05:38:00.037Z,0
2017-02-21T05:39:00.383Z,0
2017-02-21T05:39:59.933Z,0
2017-02-21T05:40:59.559Z,0
2017-02-21T05:41:59.952Z,0
2017-02-21T05:42:59.889Z,0
2017-02-21T05:43:59.480Z,0
2017-02-21T05:44:59.837Z,0
2017-02-21T05:45:59.470Z,0
2017-02-21T05:46:59.789Z,0
2017-02-21T05:47:59.402Z,0
2017-02-21T05:48:59.738Z,0
2017-02-21T05:49:59.393Z,0
2017-02-21T05:51:00.099Z,0
2017-02-21T05:51:59.723Z,0
2017-02-21T05:53:00.060Z,0
2017-02-21T05:53:59.360Z,0
2017-02-21T05:54:59.634Z,4
2017-02-21T05:56:00.051Z,4
2017-02-21T05:56:59.570Z,4
2017-02-21T05:57:59.283Z,4
2017-02-21T05:58:59.543Z,4
2017-02-21T05:59:59.612Z,4
2017-02-21T06:00:59.886Z,4
2017-02-21T06:01:59.571Z,0
2017-02-21T06:02:59.116Z,0
2017-02-21T06:03:59.470Z,4
2017-02-21T06:04:59.870Z,4
2017-02-21T06:05:59.393Z,4
2017-02-21T06:06:59.007Z,4
2017-02-21T06:07:59.518Z,4
2017-02-21T06:08:59.336Z,4
2017-02-21T06:09:59.332Z,8
2017-02-21T06:10:59.726Z,4
2017-02-21T06:11:59.711Z,4
2017-02-21T06:12:58.879Z,8
2017-02-21T06:13:59.635Z,8
2017-02-21T06:14:58.835Z,8
2017-02-21T06:15:59.590Z,8
2017-02-21T06:16:59.223Z,8
2017-02-21T06:17:59.313Z,12
2017-02-21T06:18:59.132Z,20
2017-02-21T06:19:59.642Z,20
2017-02-21T06:20:59.552Z,24
2017-02-21T06:21:59.081Z,28
2017-02-21T06:22:59.052Z,28
2017-02-21T06:23:59.047Z,28
2017-02-21T06:24:58.998Z,32
2017-02-21T06:25:58.981Z,40
2017-02-21T06:26:58.948Z,44
2017-02-21T06:27:59.329Z,44
2017-02-21T06:28:58.925Z,44
2017-02-21T06:29:59.300Z,52
2017-02-21T06:30:58.477Z,60
2017-02-21T06:31:58.065Z,76
2017-02-21T06:32:58.461Z,96
2017-02-21T06:33:59.214Z,112
2017-02-21T06:34:58.393Z,132
2017-02-21T06:35:58.760Z,152
2017-02-21T06:36:58.426Z,176
2017-02-21T06:37:58.741Z,196
2017-02-21T06:38:57.929Z,200
2017-02-21T06:39:58.673Z,220
2017-02-21T06:40:58.270Z,240
2017-02-21T06:41:58.273Z,256
2017-02-21T06:42:58.627Z,252
2017-02-21T06:43:57.818Z,248
2017-02-21T06:44:58.579Z,260
2017-02-21T06:45:58.998Z,272
2017-02-21T06:46:58.166Z,276
2017-02-21T06:47:58.907Z,260
2017-02-21T06:48:58.503Z,268
2017-02-21T06:49:58.483Z,292
2017-02-21T06:50:58.456Z,300
2017-02-21T06:51:58.050Z,312
2017-02-21T06:52:57.615Z,320
2017-02-21T06:53:58.789Z,304
2017-02-21T06:54:58.793Z,308
2017-02-21T06:55:57.963Z,340
2017-02-21T06:56:58.732Z,432
2017-02-21T06:57:58.342Z,508
2017-02-21T06:58:58.364Z,564
2017-02-21T06:59:58.658Z,620
2017-02-21T07:00:58.640Z,664
2017-02-21T07:01:58.720Z,724
2017-02-21T07:02:58.199Z,784
2017-02-21T07:03:58.617Z,800
2017-02-21T07:04:57.796Z,860
2017-02-21T07:05:58.136Z,924
2017-02-21T07:06:58.128Z,952
2017-02-21T07:07:58.098Z,1008
2017-02-21T07:08:58.476Z,1064
2017-02-21T07:09:58.465Z,1128
2017-02-21T07:10:58.060Z,1212
2017-02-21T07:11:58.029Z,1348
2017-02-21T07:12:58.418Z,1468
2017-02-21T07:13:57.984Z,1548
2017-02-21T07:14:57.572Z,1712
2017-02-21T07:15:58.333Z,1648
2017-02-21T07:16:57.940Z,1680
2017-02-21T07:17:57.491Z,1960
2017-02-21T07:18:57.091Z,2768
2017-02-21T07:19:57.469Z,2408
2017-02-21T07:20:58.218Z,2688
2017-02-21T07:21:58.205Z,2496
2017-02-21T07:22:57.788Z,3000
2017-02-21T07:23:58.206Z,3992
2017-02-21T07:24:57.768Z,2712
2017-02-21T07:25:57.724Z,2308
2017-02-21T07:26:57.693Z,3840
2017-02-21T07:27:58.074Z,10036
2017-02-21T07:28:57.671Z,5924
2017-02-21T07:29:57.265Z,2392
2017-02-21T07:30:58.013Z,2156
2017-02-21T07:31:57.223Z,2112
2017-02-21T07:32:57.601Z,2412
2017-02-21T07:33:57.612Z,2236
2017-02-21T07:34:57.549Z,2408
2017-02-21T07:35:57.545Z,2488
2017-02-21T07:36:57.585Z,2424
2017-02-21T07:37:57.479Z,2620
2017-02-21T07:38:57.479Z,2640
2017-02-21T07:39:57.449Z,2644
2017-02-21T07:40:57.877Z,2644
2017-02-21T07:41:57.007Z,2492
2017-02-21T07:42:57.467Z,2584
2017-02-21T07:43:57.427Z,2640
2017-02-21T07:44:57.404Z,2376
2017-02-21T07:45:57.314Z,2364
2017-02-21T07:46:56.517Z,2564
2017-02-21T07:47:56.572Z,2928
2017-02-21T07:48:56.860Z,2956
2017-02-21T07:49:57.637Z,2940
2017-02-21T07:50:57.612Z,2908
2017-02-21T07:51:57.181Z,3144
2017-02-21T07:52:57.171Z,2816
2017-02-21T07:53:57.163Z,2468
2017-02-21T07:54:57.561Z,2756
2017-02-21T07:55:57.508Z,2968
2017-02-21T07:56:57.490Z,3440
2017-02-21T07:57:56.698Z,4152
2017-02-21T07:58:56.719Z,3872
2017-02-21T07:59:56.638Z,4040
2017-02-21T08:00:57.120Z,3872
2017-02-21T08:01:57.467Z,4004
2017-02-21T08:02:57.016Z,5276
2017-02-21T08:03:56.583Z,4780
2017-02-21T08:04:56.556Z,4636
2017-02-21T08:05:57.365Z,3944
2017-02-21T08:06:57.308Z,2720
2017-02-21T08:07:57.329Z,2348
2017-02-21T08:08:57.370Z,2648
2017-02-21T08:09:56.854Z,2416
2017-02-21T08:10:56.833Z,2160
2017-02-21T08:11:57.179Z,2380
2017-02-21T08:12:56.857Z,2772
2017-02-21T08:13:56.749Z,3072
2017-02-21T08:14:56.368Z,3228
2017-02-21T08:15:57.149Z,4284
2017-02-21T08:16:56.368Z,5408
2017-02-21T08:17:57.122Z,25216
2017-02-21T08:18:56.657Z,14308
2017-02-21T08:19:56.645Z,16928
2017-02-21T08:20:56.298Z,8040
2017-02-21T08:21:56.226Z,40416
2017-02-21T08:22:57.043Z,18080
2017-02-21T08:23:56.585Z,30624
2017-02-21T08:24:56.601Z,7268
2017-02-21T08:25:56.554Z,6056
2017-02-21T08:26:56.914Z,7336
2017-02-21T08:27:56.542Z,9132
2017-02-21T08:28:56.482Z,13028
2017-02-21T08:29:56.840Z,10388
2017-02-21T08:30:56.451Z,9508
2017-02-21T08:31:56.871Z,7440
2017-02-21T08:32:55.999Z,6444
2017-02-21T08:33:56.378Z,5556
2017-02-21T08:34:55.962Z,5308
2017-02-21T08:35:56.386Z,6568
2017-02-21T08:36:56.306Z,9100
2017-02-21T08:37:55.915Z,8992
2017-02-21T08:38:55.904Z,3928
2017-02-21T08:39:56.266Z,2816
2017-02-21T08:40:56.255Z,2204
2017-02-21T08:41:55.844Z,2044
2017-02-21T08:42:56.213Z,1964
2017-02-21T08:43:56.180Z,2180
2017-02-21T08:44:55.762Z,2220
2017-02-21T08:45:56.169Z,2456
2017-02-21T08:46:56.129Z,2892
2017-02-21T08:47:55.731Z,3620
2017-02-21T08:48:56.080Z,4428
2017-02-21T08:49:56.069Z,4792
2017-02-21T08:50:56.449Z,4588
2017-02-21T08:51:56.433Z,5440
2017-02-21T08:52:56.007Z,4232
2017-02-21T08:53:55.612Z,4316
2017-02-21T08:54:55.589Z,3900
2017-02-21T08:55:56.045Z,3796
2017-02-21T08:56:55.950Z,3920
2017-02-21T08:57:56.324Z,3732
2017-02-21T08:58:55.927Z,3436
2017-02-21T08:59:56.353Z,3128
2017-02-21T09:00:55.857Z,2756
2017-02-21T09:01:55.892Z,2692
2017-02-21T09:02:56.201Z,3000
2017-02-21T09:03:55.410Z,3260
2017-02-21T09:04:55.391Z,3184
2017-02-21T09:05:55.803Z,2812
2017-02-21T09:06:55.359Z,2384
2017-02-21T09:07:55.719Z,2112
2017-02-21T09:08:55.695Z,1948
2017-02-21T09:09:56.068Z,1992
2017-02-21T09:10:55.679Z,2032
2017-02-21T09:11:56.038Z,2168
2017-02-21T09:12:55.608Z,2008
2017-02-21T09:13:55.993Z,1928
2017-02-21T09:14:55.965Z,1848
2017-02-21T09:15:55.945Z,1992
2017-02-21T09:16:55.957Z,2200
2017-02-21T09:17:55.613Z,2540
2017-02-21T09:18:55.986Z,2640
2017-02-21T09:19:55.181Z,2524
2017-02-21T09:20:55.451Z,2276
2017-02-21T09:21:55.461Z,2172
2017-02-21T09:22:55.441Z,2168
2017-02-21T09:23:55.076Z,2240
2017-02-21T09:24:55.011Z,2192
2017-02-21T09:25:55.389Z,2088
2017-02-21T09:26:55.358Z,2084
2017-02-21T09:27:55.707Z,2020
2017-02-21T09:28:55.357Z,1864
2017-02-21T09:29:54.565Z,1776
2017-02-21T09:30:55.276Z,1756
2017-02-21T09:31:55.620Z,1848
2017-02-21T09:32:55.622Z,2308
2017-02-21T09:33:55.605Z,2652
2017-02-21T09:34:55.595Z,2592
2017-02-21T09:35:55.553Z,2720
2017-02-21T09:36:55.169Z,2844
2017-02-21T09:37:55.120Z,2956
2017-02-21T09:38:54.721Z,3372
2017-02-21T09:39:54.680Z,3672
2017-02-21T09:40:54.689Z,3188
2017-02-21T09:41:55.066Z,2868
2017-02-21T09:42:55.019Z,2576
2017-02-21T09:43:55.058Z,2736
2017-02-21T09:44:54.598Z,2552
2017-02-21T09:45:55.439Z,2552
2017-02-21T09:46:54.666Z,2812
2017-02-21T09:47:54.157Z,2816
2017-02-21T09:48:55.336Z,2740
2017-02-21T09:49:54.496Z,2136
2017-02-21T09:50:54.483Z,2340
2017-02-21T09:51:55.250Z,2816
2017-02-21T09:52:54.892Z,3104
2017-02-21T09:53:55.190Z,3220
2017-02-21T09:54:54.473Z,3352
2017-02-21T09:55:55.216Z,3444
2017-02-21T09:56:55.146Z,3124
2017-02-21T09:57:54.743Z,2980
2017-02-21T09:58:55.158Z,2812
2017-02-21T09:59:54.700Z,2416
2017-02-21T10:00:55.060Z,2180
2017-02-21T10:01:54.667Z,2116
2017-02-21T10:02:55.029Z,2328
2017-02-21T10:03:54.610Z,2372
2017-02-21T10:04:54.230Z,2356
2017-02-21T10:05:54.971Z,3300
2017-02-21T10:06:54.157Z,2436
2017-02-21T10:07:54.546Z,2312
2017-02-21T10:08:54.518Z,1788
2017-02-21T10:09:54.503Z,1504
2017-02-21T10:10:54.483Z,1280
2017-02-21T10:11:54.467Z,1152
2017-02-21T10:12:54.840Z,1284
2017-02-21T10:13:54.008Z,1380
2017-02-21T10:14:54.402Z,1728
2017-02-21T10:15:54.408Z,2068
2017-02-21T10:16:53.982Z,2620
2017-02-21T10:17:54.376Z,3220
2017-02-21T10:18:54.711Z,3508
2017-02-21T10:19:54.401Z,2500
2017-02-21T10:20:54.708Z,2476
2017-02-21T10:21:53.881Z,2628
2017-02-21T10:22:54.648Z,3000
2017-02-21T10:23:54.207Z,3684
2017-02-21T10:24:54.204Z,3704
2017-02-21T10:25:54.193Z,3784
2017-02-21T10:26:54.146Z,3632
2017-02-21T10:27:54.530Z,3220
2017-02-21T10:28:54.111Z,3284
2017-02-21T10:29:54.494Z,4552
2017-02-21T10:30:54.081Z,5984
2017-02-21T10:31:54.060Z,6728
2017-02-21T10:32:53.663Z,6284
2017-02-21T10:33:54.404Z,4840
2017-02-21T10:34:54.461Z,4168
2017-02-21T10:35:54.001Z,3964
2017-02-21T10:36:53.962Z,3228
2017-02-21T10:37:53.561Z,3252
2017-02-21T10:38:53.552Z,3680
2017-02-21T10:39:54.289Z,3064
2017-02-21T10:40:53.878Z,2752
2017-02-21T10:41:54.269Z,2924
2017-02-21T10:42:53.473Z,3044
2017-02-21T10:43:53.838Z,3936
2017-02-21T10:44:53.824Z,6416
2017-02-21T10:45:53.846Z,5548
2017-02-21T10:46:54.167Z,6028
2017-02-21T10:47:54.145Z,5332
2017-02-21T10:48:54.136Z,3744
2017-02-21T10:49:54.083Z,3484
2017-02-21T10:50:53.303Z,4444
2017-02-21T10:51:54.062Z,4540
2017-02-21T10:52:53.272Z,4620
2017-02-21T10:53:53.641Z,5048
2017-02-21T10:54:53.632Z,4876
2017-02-21T10:55:53.317Z,4312
2017-02-21T10:56:52.793Z,4184
2017-02-21T10:57:53.241Z,4208
2017-02-21T10:58:53.926Z,4720
2017-02-21T10:59:53.895Z,6444
2017-02-21T11:00:53.868Z,6724
2017-02-21T11:01:53.891Z,7100
2017-02-21T11:02:53.528Z,8236
2017-02-21T11:03:53.828Z,9380
2017-02-21T11:04:53.465Z,9096
2017-02-21T11:05:53.480Z,8744
2017-02-21T11:06:53.036Z,7948
2017-02-21T11:07:53.396Z,8148
2017-02-21T11:08:53.777Z,8624
2017-02-21T11:09:53.333Z,8344
2017-02-21T11:10:53.304Z,8160
2017-02-21T11:11:53.693Z,11104
2017-02-21T11:12:53.657Z,19296
2017-02-21T11:13:53.676Z,8468
2017-02-21T11:14:52.881Z,8652
2017-02-21T11:15:53.606Z,6656
2017-02-21T11:16:52.801Z,7712
2017-02-21T11:17:53.175Z,6364
2017-02-21T11:18:53.632Z,5508
2017-02-21T11:19:52.363Z,4816
2017-02-21T11:20:53.631Z,4768
2017-02-21T11:21:53.120Z,4356
2017-02-21T11:22:52.311Z,3668
2017-02-21T11:23:53.072Z,4304
2017-02-21T11:24:53.067Z,4964
2017-02-21T11:25:53.085Z,6336
2017-02-21T11:26:53.478Z,4700
2017-02-21T11:27:52.608Z,4204
2017-02-21T11:28:52.612Z,3812
2017-02-21T11:29:52.952Z,3744
2017-02-21T11:30:53.325Z,3328
2017-02-21T11:31:52.544Z,3332
2017-02-21T11:32:53.024Z,3368
2017-02-21T11:33:53.283Z,2916
2017-02-21T11:34:53.279Z,2672
2017-02-21T11:35:53.261Z,2608
2017-02-21T11:36:52.892Z,2288
2017-02-21T11:37:52.451Z,2108
2017-02-21T11:38:52.828Z,1968
2017-02-21T11:39:52.807Z,2148
2017-02-21T11:40:51.980Z,2664
2017-02-21T11:41:51.950Z,3476
2017-02-21T11:42:52.322Z,3704
2017-02-21T11:43:53.108Z,4256
2017-02-21T11:44:52.668Z,3688
2017-02-21T11:45:52.262Z,3520
2017-02-21T11:46:52.667Z,3504
2017-02-21T11:47:52.227Z,3208
2017-02-21T11:48:52.607Z,2712
2017-02-21T11:49:53.281Z,2472
2017-02-21T11:50:52.976Z,2468
2017-02-21T11:51:52.151Z,2628
2017-02-21T11:52:52.147Z,2704
2017-02-21T11:53:52.912Z,3512
2017-02-21T11:54:52.090Z,4076
2017-02-21T11:55:52.501Z,5176
2017-02-21T11:56:52.957Z,6228
2017-02-21T11:57:51.662Z,4952
2017-02-21T11:58:52.421Z,4252
2017-02-21T11:59:52.871Z,7316
2017-02-21T12:00:52.847Z,6196
2017-02-21T12:01:52.354Z,12064
2017-02-21T12:02:52.856Z,16832
2017-02-21T12:03:52.733Z,18432
2017-02-21T12:04:51.923Z,19424
2017-02-21T12:05:52.317Z,8880
2017-02-21T12:06:51.893Z,13444
2017-02-21T12:07:52.306Z,9108
2017-02-21T12:08:52.678Z,9660
2017-02-21T12:09:52.236Z,13464
2017-02-21T12:10:52.217Z,7964
2017-02-21T12:11:52.572Z,8216
2017-02-21T12:12:51.391Z,8120
2017-02-21T12:13:52.549Z,7788
2017-02-21T12:14:52.124Z,8448
2017-02-21T12:15:52.112Z,9008
2017-02-21T12:16:52.090Z,20800
2017-02-21T12:17:52.123Z,17888
2017-02-21T12:18:52.468Z,19040
2017-02-21T12:19:51.772Z,20640
2017-02-21T12:20:51.628Z,20256
2017-02-21T12:21:52.033Z,21120
2017-02-21T12:22:52.454Z,21184
2017-02-21T12:23:52.078Z,20224
2017-02-21T12:24:52.349Z,19008
2017-02-21T12:25:51.985Z,17472
2017-02-21T12:26:51.553Z,18176
2017-02-21T12:27:51.531Z,18432
2017-02-21T12:28:51.887Z,19392
2017-02-21T12:29:51.875Z,6540
2017-02-21T12:30:51.935Z,5400
2017-02-21T12:31:51.985Z,5052
2017-02-21T12:32:51.444Z,7512
2017-02-21T12:33:51.842Z,6280
2017-02-21T12:34:51.810Z,4612
2017-02-21T12:35:51.914Z,5056
2017-02-21T12:36:52.152Z,19712
2017-02-21T12:37:51.814Z,19936
2017-02-21T12:38:52.188Z,20544
2017-02-21T12:39:52.212Z,20288
2017-02-21T12:40:51.699Z,18656
2017-02-21T12:41:50.910Z,19328
2017-02-21T12:42:51.679Z,18688
2017-02-21T12:43:52.068Z,17312
2017-02-21T12:44:51.640Z,17216
2017-02-21T12:45:51.628Z,18016
2017-02-21T12:46:51.289Z,14644
2017-02-21T12:47:51.206Z,18272
2017-02-21T12:48:52.031Z,17312
2017-02-21T12:49:51.656Z,18688
2017-02-21T12:50:51.949Z,19808
2017-02-21T12:51:51.159Z,19424
2017-02-21T12:52:51.573Z,19008
2017-02-21T12:53:51.936Z,18016
2017-02-21T12:54:51.474Z,19936
2017-02-21T12:55:51.483Z,20416
2017-02-21T12:56:51.072Z,20160
2017-02-21T12:57:51.867Z,19968
2017-02-21T12:58:51.421Z,18944
2017-02-21T12:59:51.100Z,20448
2017-02-21T13:00:51.388Z,21088
2017-02-21T13:01:51.480Z,20640
2017-02-21T13:02:51.408Z,20896
2017-02-21T13:03:51.750Z,19776
2017-02-21T13:04:51.327Z,18624
2017-02-21T13:05:51.725Z,18592
2017-02-21T13:06:51.397Z,18720
2017-02-21T13:07:51.290Z,18976
2017-02-21T13:08:50.898Z,18080
2017-02-21T13:09:51.275Z,16864
2017-02-21T13:10:51.685Z,18048
2017-02-21T13:11:51.613Z,17632
2017-02-21T13:12:51.710Z,16960
2017-02-21T13:13:51.612Z,16992
2017-02-21T13:14:50.553Z,17696
2017-02-21T13:15:51.155Z,9728
2017-02-21T13:16:51.554Z,12784
2017-02-21T13:17:51.531Z,16352
2017-02-21T13:18:51.170Z,16832
2017-02-21T13:19:51.080Z,17568
2017-02-21T13:20:51.461Z,17280
2017-02-21T13:21:51.075Z,15968
2017-02-21T13:22:51.049Z,13556
2017-02-21T13:23:51.049Z,6888
2017-02-21T13:24:51.131Z,7244
2017-02-21T13:25:51.399Z,15392
2017-02-21T13:26:50.646Z,14964
2017-02-21T13:27:50.653Z,17088
2017-02-21T13:28:51.015Z,17760
2017-02-21T13:29:50.953Z,7388
2017-02-21T13:30:51.328Z,5624
2017-02-21T13:31:50.935Z,5308
2017-02-21T13:32:51.323Z,4960
2017-02-21T13:33:50.561Z,4560
2017-02-21T13:34:51.264Z,4300
2017-02-21T13:35:50.853Z,4124
2017-02-21T13:36:50.857Z,4044
2017-02-21T13:37:50.431Z,5608
2017-02-21T13:38:51.227Z,6700
2017-02-21T13:39:51.187Z,4224
2017-02-21T13:40:51.188Z,4040
2017-02-21T13:41:50.417Z,4484
2017-02-21T13:42:50.819Z,8860
2017-02-21T13:43:50.760Z,5432
2017-02-21T13:44:51.109Z,4824
2017-02-21T13:45:50.315Z,4684
2017-02-21T13:46:51.062Z,4900
2017-02-21T13:47:51.093Z,4472
2017-02-21T13:48:51.045Z,4376
2017-02-21T13:49:50.643Z,4604
2017-02-21T13:50:51.023Z,8672
2017-02-21T13:51:50.622Z,4436
2017-02-21T13:52:50.979Z,4280
2017-02-21T13:53:50.579Z,4020
2017-02-21T13:54:50.930Z,3696